Главная страница
METAR-TAF:

METAR-TAF

Аэропорты :

Москва-Шереметьево, Россия

Шереметьево

широта: 55-59N, долгота: 037-30E, высота над уровнем моря: 190 м

Текущие метеонаблюдения

Эта сводка был подготовлена 36 минут назад, в 16:30 UTC
Ветер 10 Узел от юго-западный
Температура 12°C
Влажность 71%
Давление 1016 hPa
Видимость 10 км и более
Нет облачности ниже 1500 м, и нет кучево-дождевой облачности

METAR: UUEE 191630Z 22005MPS CAVOK 12/07 Q1016 R24R/CLRD62 R24L/CLRD62 NOSIG

Время: 20:06 (17:06 UTC)

Прогноз

Эта сводка был подготовлена 3 часа и 12 минут назад, в 13:54 UTC
Прогноз действительный с 19-го 15 UTC до 20-го 15 UTC
Ветер 17 Узел от юго-западный с порывами до 27 Узел
Видимость 10 км и более
Рассеянная облачность на высоте 2000 фута
изменения
С 19-го 16 UTC до 19-го 18 UTC
Ветер 12 Узел от западный-юго-западный

TAF: UUEE 191354Z 1915/2015 23009G14MPS 9999 BKN020 TX17/2013Z TN06/2003Z BECMG 1916/1918 25006MPS

Метеонаблюдения и прогнозы для более 4000 аэропортов (сводки METAR и TAF).

Имеющиеся станции представлены на карте желтыми и красными точками.

Чтобы увидеть название станции, наведите на нее мышь.

Затем щелкните, чтобы увидеть метеонаблюдения и метеопрогнозы.

Управление картой: чтобы увеличить масштаб, щелкните зеленые кнопки с черным крестиком; чтобы уменьшить масштаб, щелкните зеленую кнопку с тире; для просмотра соседних карт щелкайте зеленые стрелки.


METAR-TAF: